createdAt,value
2019-03-12T00:01:12.071Z,18.07
2019-03-12T00:03:45.109Z,35.87
2019-03-12T00:06:15.841Z,20.60
2019-03-12T00:09:16.592Z,22.30
2019-03-12T00:11:56.268Z,17.10
2019-03-12T00:14:37.708Z,16.53
2019-03-12T00:23:07.232Z,18.00
2019-03-12T00:25:27.448Z,34.90
2019-03-12T00:27:37.337Z,39.30
2019-03-12T00:33:01.114Z,38.57
2019-03-12T00:35:11.357Z,16.50
2019-03-12T00:37:41.542Z,34.33
2019-03-12T00:40:34.012Z,20.37
2019-03-12T00:42:48.962Z,27.00
2019-03-12T00:45:01.228Z,35.73
2019-03-12T00:47:39.820Z,27.50
2019-03-12T00:50:30.051Z,28.17
2019-03-12T00:52:52.535Z,34.77
2019-03-12T00:55:16.420Z,37.67
2019-03-12T00:57:28.783Z,51.40
2019-03-12T01:00:35.100Z,33.20
2019-03-12T01:02:46.991Z,34.27
2019-03-12T01:05:01.718Z,47.43
2019-03-12T01:10:24.575Z,35.23
2019-03-12T01:12:53.877Z,25.33
2019-03-12T01:15:17.404Z,32.33
2019-03-12T01:17:45.224Z,39.77
2019-03-12T01:20:16.841Z,40.77
2019-03-12T01:22:25.654Z,36.53
2019-03-12T01:24:43.012Z,37.67
2019-03-12T01:27:06.394Z,41.27
2019-03-12T01:29:35.888Z,30.03
2019-03-12T01:32:00.784Z,32.37
2019-03-12T01:34:29.757Z,38.80
2019-03-12T01:36:37.975Z,55.73
2019-03-12T01:39:29.194Z,38.00
2019-03-12T01:41:55.422Z,29.73
2019-03-12T01:44:48.914Z,37.00
2019-03-12T01:47:25.972Z,48.27
2019-03-12T01:50:13.229Z,35.57
2019-03-12T01:52:23.401Z,47.63
2019-03-12T01:54:47.311Z,49.07
2019-03-12T01:57:17.800Z,50.97
2019-03-12T02:00:12.367Z,40.37
2019-03-12T02:02:45.974Z,45.50
2019-03-12T02:05:18.719Z,37.63
2019-03-12T02:08:03.174Z,49.07
2019-03-12T02:10:23.338Z,37.90
2019-03-12T02:12:31.392Z,40.23
2019-03-12T02:15:15.833Z,39.70
2019-03-12T02:18:29.048Z,37.47
2019-03-12T02:20:49.599Z,39.57
2019-03-12T02:22:53.772Z,44.53
2019-03-12T02:25:29.977Z,56.27
2019-03-12T02:30:52.774Z,42.10
2019-03-12T02:33:01.423Z,45.00
2019-03-12T02:35:06.139Z,77.00
2019-03-12T02:37:38.719Z,53.33
2019-03-12T02:42:51.705Z,55.33
2019-03-12T02:45:01.603Z,56.80
2019-03-12T02:47:21.301Z,43.90
2019-03-12T02:49:38.739Z,52.50
2019-03-12T02:51:53.221Z,56.70
2019-03-12T02:54:04.564Z,43.30
2019-03-12T02:56:17.377Z,28.40
2019-03-12T02:58:25.140Z,40.67
2019-03-12T03:00:38.272Z,34.70
2019-03-12T03:02:48.655Z,59.90
2019-03-12T03:04:55.669Z,33.73
2019-03-12T03:07:10.482Z,60.97
2019-03-12T03:09:32.503Z,53.50
2019-03-12T03:11:50.772Z,60.40
2019-03-12T03:14:07.704Z,41.37
2019-03-12T03:16:23.710Z,48.93
2019-03-12T03:18:42.395Z,61.73
2019-03-12T03:21:07.326Z,53.43
2019-03-12T03:23:23.283Z,64.90
2019-03-12T03:25:39.664Z,43.10
2019-03-12T03:27:48.295Z,57.93
2019-03-12T03:29:57.804Z,64.03
2019-03-12T03:32:15.946Z,70.20
2019-03-12T03:34:28.168Z,79.90
2019-03-12T03:36:48.405Z,75.13
2019-03-12T03:39:37.737Z,71.83
2019-03-12T03:42:21.129Z,92.00
2019-03-12T03:45:14.925Z,72.00
2019-03-12T03:47:46.670Z,88.00
2019-03-12T03:50:31.864Z,83.03
2019-03-12T03:52:53.606Z,91.90
2019-03-12T03:55:42.865Z,86.27
2019-03-12T04:01:18.952Z,93.67
2019-03-12T04:03:53.579Z,89.50
2019-03-12T04:06:33.773Z,98.47
2019-03-12T04:08:45.007Z,93.73
2019-03-12T04:11:03.216Z,103.40
2019-03-12T04:13:12.524Z,113.67
2019-03-12T04:15:22.790Z,108.03
2019-03-12T04:17:38.941Z,91.67
2019-03-12T04:19:51.252Z,94.73
2019-03-12T04:22:01.768Z,90.40
2019-03-12T04:24:11.586Z,103.50
2019-03-12T04:26:18.367Z,86.93
2019-03-12T04:28:26.857Z,112.23
2019-03-12T04:30:47.828Z,88.37
2019-03-12T04:33:05.365Z,96.17
2019-03-12T04:35:15.390Z,87.30
2019-03-12T04:37:21.964Z,82.10
2019-03-12T04:39:44.799Z,79.73
2019-03-12T04:42:16.691Z,93.20
2019-03-12T04:44:36.519Z,77.33
2019-03-12T04:46:55.896Z,60.13
2019-03-12T04:49:36.653Z,66.20
2019-03-12T04:52:03.809Z,61.67
2019-03-12T04:54:27.266Z,56.20
2019-03-12T04:59:28.102Z,44.97
2019-03-12T05:02:18.154Z,39.83
2019-03-12T05:04:14.916Z,42.17
2019-03-12T05:06:29.629Z,34.33
2019-03-12T05:15:32.903Z,52.10
2019-03-12T05:19:28.426Z,34.87
2019-03-12T05:21:46.624Z,35.07
2019-03-12T05:28:33.607Z,36.97
2019-03-12T05:30:51.416Z,23.13
2019-03-12T05:34:23.189Z,45.83
2019-03-12T05:37:13.780Z,22.90
2019-03-12T05:39:09.041Z,31.13
2019-03-12T05:41:24.057Z,26.30
2019-03-12T05:43:59.123Z,47.83
2019-03-12T05:46:36.933Z,41.30
2019-03-12T05:49:14.224Z,22.63
2019-03-12T05:51:24.119Z,37.77
2019-03-12T05:53:59.176Z,24.83
2019-03-12T05:56:03.120Z,33.40
2019-03-12T06:01:46.978Z,31.97
2019-03-12T06:02:28.848Z,31.80
2019-03-12T06:04:33.331Z,38.83
2019-03-12T06:07:10.426Z,30.97
2019-03-12T06:13:58.256Z,26.33
2019-03-12T06:16:28.800Z,25.97
2019-03-12T06:21:45.913Z,22.70
2019-03-12T06:24:43.278Z,23.50
2019-03-12T06:28:06.699Z,25.30
2019-03-12T06:35:27.702Z,32.57
2019-03-12T06:47:13.351Z,33.00
2019-03-12T06:50:18.279Z,26.97
2019-03-12T07:05:31.802Z,22.80
2019-03-12T07:15:09.763Z,30.93
2019-03-12T07:24:15.734Z,25.03
2019-03-12T07:26:46.118Z,38.37
2019-03-12T07:29:15.449Z,23.73
2019-03-12T09:57:00.548Z,22.33
2019-03-12T09:59:40.697Z,14.37
2019-03-12T10:02:34.194Z,15.07
2019-03-12T10:05:14.379Z,15.47
2019-03-12T10:08:10.838Z,15.73
2019-03-12T10:37:12.007Z,17.47
2019-03-12T10:57:17.810Z,23.33
2019-03-12T11:03:09.600Z,15.93
2019-03-12T11:05:27.722Z,12.77
2019-03-12T11:08:40.655Z,20.73
2019-03-12T11:27:16.664Z,14.27
2019-03-12T11:32:38.958Z,15.50
2019-03-12T11:34:38.508Z,16.53
2019-03-12T11:36:46.007Z,19.13
2019-03-12T11:38:54.440Z,10.63
2019-03-12T11:40:58.771Z,21.40
2019-03-12T11:43:10.029Z,12.93
2019-03-12T11:45:20.400Z,6.80
2019-03-12T11:47:29.728Z,13.63
2019-03-12T11:49:40.354Z,13.07
2019-03-12T11:51:51.533Z,17.20
2019-03-12T11:54:04.078Z,19.13
2019-03-12T11:56:14.010Z,14.23
2019-03-12T11:58:24.826Z,17.73
2019-03-12T12:00:40.724Z,9.40
2019-03-12T12:02:59.289Z,15.63
2019-03-12T12:05:04.349Z,12.70
2019-03-12T12:07:23.412Z,7.23
2019-03-12T12:09:31.594Z,18.03
2019-03-12T12:11:37.525Z,16.90
2019-03-12T12:13:52.281Z,15.07
2019-03-12T12:16:07.255Z,11.77
2019-03-12T12:18:24.875Z,10.43
2019-03-12T12:20:34.421Z,15.87
2019-03-12T12:22:50.634Z,11.43
2019-03-12T12:25:03.973Z,6.20
2019-03-12T12:30:57.218Z,5.80
2019-03-12T12:37:14.024Z,13.03
2019-03-12T12:40:08.635Z,9.63
2019-03-12T12:43:03.637Z,14.17
2019-03-12T12:49:21.718Z,10.40
2019-03-12T12:55:26.354Z,8.10
2019-03-12T12:58:12.171Z,12.37
2019-03-12T13:01:12.438Z,5.50
2019-03-12T13:03:56.041Z,9.57
2019-03-12T13:09:33.113Z,10.33
2019-03-12T13:25:12.202Z,11.20
2019-03-12T13:28:32.737Z,6.30
2019-03-12T13:37:51.695Z,5.43
2019-03-12T13:43:59.845Z,12.03
2019-03-12T13:47:06.805Z,15.43
2019-03-12T13:49:50.065Z,16.20
2019-03-12T13:52:16.202Z,14.60
2019-03-12T13:54:34.128Z,14.10
2019-03-12T13:56:54.062Z,8.13
2019-03-12T13:59:04.688Z,15.20
2019-03-12T14:01:15.603Z,5.70
2019-03-12T14:06:28.361Z,14.83
2019-03-12T14:08:49.164Z,12.17
2019-03-12T14:11:02.524Z,22.00
2019-03-12T14:13:17.320Z,15.77
2019-03-12T14:15:33.285Z,17.03
2019-03-12T14:17:52.591Z,14.80
2019-03-12T14:23:29.401Z,13.90
2019-03-12T14:25:48.881Z,9.23
2019-03-12T14:28:04.618Z,3.67
2019-03-12T14:30:19.124Z,6.33
2019-03-12T14:32:36.767Z,5.37
2019-03-12T14:34:49.023Z,5.23
2019-03-12T14:36:56.623Z,13.70
2019-03-12T14:39:10.513Z,5.60
2019-03-12T14:41:21.094Z,10.80
2019-03-12T14:43:52.035Z,8.37
2019-03-12T14:45:58.738Z,2.97
2019-03-12T14:48:05.943Z,25.70
2019-03-12T14:50:22.564Z,10.53
2019-03-12T14:52:47.563Z,5.53
2019-03-12T14:55:11.002Z,24.30
2019-03-12T14:57:27.570Z,8.33
2019-03-12T14:59:47.973Z,19.23
2019-03-12T15:01:52.506Z,5.77
2019-03-12T15:03:56.506Z,9.20
2019-03-12T15:06:00.443Z,14.97
2019-03-12T15:08:05.926Z,10.43
2019-03-12T15:10:11.445Z,12.60
2019-03-12T15:12:20.576Z,5.77
2019-03-12T15:17:54.432Z,14.40
2019-03-12T15:20:11.953Z,11.17
2019-03-12T15:22:36.315Z,5.53
2019-03-12T15:24:47.174Z,9.50
2019-03-12T15:27:18.394Z,6.50
2019-03-12T15:29:27.105Z,7.57
2019-03-12T15:31:43.783Z,12.33
2019-03-12T15:33:54.305Z,8.53
2019-03-12T15:36:08.660Z,16.53
2019-03-12T15:38:12.727Z,25.57
2019-03-12T15:40:17.032Z,27.07
2019-03-12T15:42:20.931Z,3.60
2019-03-12T15:44:25.062Z,14.60
2019-03-12T15:49:15.212Z,6.70
2019-03-12T15:51:25.840Z,9.97
2019-03-12T15:53:43.717Z,7.00
2019-03-12T15:55:59.460Z,6.90
2019-03-12T16:08:45.173Z,5.67
2019-03-12T16:11:38.089Z,12.57
2019-03-12T17:09:59.717Z,7.03
2019-03-12T18:48:10.144Z,4.60
2019-03-12T18:50:15.039Z,9.73
2019-03-12T18:52:19.427Z,14.73
2019-03-12T18:54:23.664Z,5.50
2019-03-12T18:56:40.163Z,7.73
2019-03-12T18:58:44.195Z,6.70
2019-03-12T19:00:49.232Z,8.77
2019-03-12T19:02:53.090Z,4.60
2019-03-12T19:05:00.408Z,1.50
2019-03-12T19:07:09.581Z,6.03
2019-03-12T19:09:15.897Z,6.00
2019-03-12T19:11:32.485Z,5.30
2019-03-12T19:13:37.284Z,5.63
2019-03-12T19:15:41.310Z,5.70
2019-03-12T19:17:54.036Z,5.80
2019-03-12T19:20:03.007Z,3.67
2019-03-12T19:22:12.968Z,6.60
2019-03-12T19:24:20.157Z,6.60
2019-03-12T19:26:42.373Z,2.53
2019-03-12T19:28:53.210Z,5.73
2019-03-12T19:31:23.277Z,4.00
2019-03-12T19:33:36.421Z,2.30
2019-03-12T19:35:43.408Z,2.60
2019-03-12T19:38:02.537Z,2.27
2019-03-12T19:40:18.190Z,8.60
2019-03-12T19:42:24.210Z,5.77
2019-03-12T19:44:38.710Z,2.73
2019-03-12T19:47:04.480Z,4.30
2019-03-12T19:55:55.377Z,6.93
2019-03-12T19:59:10.256Z,3.63
2019-03-12T20:01:53.186Z,2.60
2019-03-12T20:04:47.227Z,7.60
2019-03-12T20:07:26.627Z,5.17
2019-03-12T20:10:12.577Z,10.13
2019-03-12T20:13:12.980Z,3.33
2019-03-12T20:16:05.783Z,3.73
2019-03-12T20:18:58.800Z,10.03
2019-03-12T20:22:00.439Z,3.33
2019-03-12T20:24:55.135Z,5.13
2019-03-12T20:27:36.875Z,1.80
2019-03-12T20:30:16.088Z,4.50
2019-03-12T20:56:39.369Z,3.80
2019-03-12T21:02:26.587Z,13.83
2019-03-12T21:05:28.198Z,10.03
2019-03-12T21:14:59.931Z,8.40
2019-03-12T21:17:41.543Z,5.27
2019-03-12T21:20:38.783Z,3.80
2019-03-12T21:26:33.275Z,3.10
2019-03-12T21:29:23.914Z,6.40
2019-03-12T21:31:32.348Z,8.17
2019-03-12T21:37:31.242Z,7.10
2019-03-12T21:40:26.992Z,4.50
2019-03-12T21:43:12.101Z,14.60
2019-03-12T21:52:03.156Z,1.43
2019-03-12T21:58:31.558Z,3.70
2019-03-12T22:01:28.845Z,1.03
2019-03-12T22:03:25.571Z,0.63
2019-03-12T22:05:29.501Z,0.60
2019-03-12T22:08:26.488Z,0.50
2019-03-12T22:20:51.392Z,0.70
2019-03-12T22:23:51.344Z,0.80
2019-03-12T22:51:34.000Z,1.33
2019-03-12T23:15:10.779Z,2.97
2019-03-12T23:17:49.942Z,3.10
2019-03-12T23:21:04.150Z,4.20
2019-03-12T23:26:25.608Z,10.53
2019-03-12T23:28:57.453Z,7.57
2019-03-12T23:31:23.273Z,4.40
2019-03-12T23:33:57.555Z,7.00
2019-03-12T23:36:02.307Z,6.27
2019-03-12T23:38:14.142Z,4.77
2019-03-12T23:40:37.189Z,5.50
2019-03-12T23:43:08.797Z,8.30
2019-03-12T23:45:54.977Z,3.67
2019-03-12T23:47:44.381Z,4.43
2019-03-12T23:50:22.810Z,8.37
2019-03-12T23:52:26.899Z,8.43
2019-03-12T23:54:31.968Z,10.23
2019-03-12T23:57:16.731Z,7.77
